Time;durP1;ratioP1;P1;durP2;ratioP2;P2;SDS_P1;SDS_P2;PMS_P1;PMS_P2;Temp;Humidity;BMP_temperature;BMP_pressure;BME280_temperature;BME280_humidity;BME280_pressure;Samples;Min_cycle;Max_cycle;Signal;HPM_P1;HPM_P2
2023/11/25 00:00:26;;;;;;;0.70;0.70;;;-0.70;99.90;;;;;;5050420;28;20679;-69
2023/11/25 00:02:53;;;;;;;0.60;0.60;;;-0.60;99.90;;;;;;5050459;28;20343;-70
2023/11/25 00:05:19;;;;;;;0.70;0.70;;;-0.60;99.90;;;;;;5050341;28;20190;-69
2023/11/25 00:07:46;;;;;;;0.70;0.70;;;-0.50;99.90;;;;;;5050577;28;20205;-69
2023/11/25 00:10:12;;;;;;;0.57;0.57;;;-0.40;99.90;;;;;;5050523;28;20908;-70
2023/11/25 00:12:38;;;;;;;0.70;0.70;;;-0.40;99.90;;;;;;5050735;28;21309;-69
2023/11/25 00:15:04;;;;;;;0.70;0.70;;;-0.40;99.90;;;;;;5063737;28;20288;-69
2023/11/25 00:17:31;;;;;;;0.60;0.60;;;-0.30;99.90;;;;;;5068694;28;20236;-70
2023/11/25 00:19:57;;;;;;;0.70;0.70;;;-0.30;99.90;;;;;;5070025;28;20200;-68
2023/11/25 00:22:23;;;;;;;0.60;0.60;;;-0.30;99.90;;;;;;5070178;28;20562;-68
2023/11/25 00:24:50;;;;;;;1.75;1.65;;;-0.30;99.90;;;;;;5070142;28;20676;-69
2023/11/25 00:27:16;;;;;;;0.70;0.70;;;-0.30;99.90;;;;;;5069850;28;20696;-69
2023/11/25 00:29:42;;;;;;;0.60;0.60;;;-0.40;99.90;;;;;;5069962;28;20200;-70
2023/11/25 00:32:07;;;;;;;0.60;0.60;;;-0.40;99.90;;;;;;5069933;28;20201;-70
2023/11/25 00:34:33;;;;;;;0.50;0.50;;;-0.40;99.90;;;;;;5069810;28;20201;-69
2023/11/25 00:36:59;;;;;;;0.63;0.63;;;-0.40;99.90;;;;;;5069947;28;20203;-69
2023/11/25 00:39:27;;;;;;;0.60;0.60;;;-0.40;99.90;;;;;;5069500;28;20288;-69
2023/11/25 00:41:53;;;;;;;0.70;0.70;;;-0.40;99.90;;;;;;5069847;28;20647;-69
2023/11/25 00:44:19;;;;;;;0.60;0.60;;;-0.40;99.90;;;;;;5069526;28;20185;-70
2023/11/25 00:46:44;;;;;;;0.60;0.60;;;-0.50;99.90;;;;;;5069644;28;20205;-70
2023/11/25 00:49:11;;;;;;;0.70;0.70;;;-0.50;99.90;;;;;;5069661;28;20709;-69
2023/11/25 00:51:37;;;;;;;0.65;0.65;;;-0.40;99.90;;;;;;5069116;28;20282;-70
2023/11/25 00:54:04;;;;;;;0.65;0.65;;;-0.40;99.90;;;;;;5069971;28;20664;-70
2023/11/25 00:56:30;;;;;;;0.68;0.68;;;-0.40;99.90;;;;;;5069233;28;20279;-68
2023/11/25 00:58:56;;;;;;;0.68;0.68;;;-0.40;99.90;;;;;;5068263;28;20208;-69
2023/11/25 01:01:22;;;;;;;0.57;0.57;;;-0.40;99.90;;;;;;5069269;28;20946;-69
2023/11/25 01:03:48;;;;;;;0.65;0.65;;;-0.40;99.90;;;;;;5068800;28;20276;-69
2023/11/25 01:06:14;;;;;;;0.60;0.60;;;-0.40;99.90;;;;;;5069441;28;20258;-70
2023/11/25 01:08:40;;;;;;;0.82;0.82;;;-0.30;99.90;;;;;;5069277;28;20189;-70
2023/11/25 01:11:05;;;;;;;1.15;1.05;;;-0.30;99.90;;;;;;5069219;28;20249;-70
2023/11/25 01:13:31;;;;;;;0.52;0.52;;;-0.30;99.90;;;;;;5069011;28;20205;-70
2023/11/25 01:15:57;;;;;;;0.52;0.52;;;-0.30;99.90;;;;;;5068996;28;20208;-70
2023/11/25 01:18:23;;;;;;;0.68;0.68;;;-0.20;99.90;;;;;;5068951;28;20201;-67
2023/11/25 01:20:48;;;;;;;0.70;0.70;;;-0.30;99.90;;;;;;5069018;28;20201;-68
2023/11/25 01:23:15;;;;;;;0.60;0.60;;;-0.30;99.90;;;;;;5053348;28;20262;-67
2023/11/25 01:25:41;;;;;;;0.60;0.60;;;-0.30;99.90;;;;;;5048895;28;20565;-68
2023/11/25 01:28:07;;;;;;;0.60;0.60;;;-0.20;99.90;;;;;;5048956;28;20197;-68
2023/11/25 01:30:33;;;;;;;0.68;0.68;;;-0.20;99.90;;;;;;5048977;28;20198;-67
2023/11/25 01:32:59;;;;;;;0.52;0.52;;;-0.20;99.90;;;;;;5048982;28;20197;-67
2023/11/25 01:35:25;;;;;;;0.70;0.70;;;-0.20;99.90;;;;;;5048772;28;20198;-68
2023/11/25 01:37:51;;;;;;;0.65;0.65;;;-0.30;99.90;;;;;;5059615;28;20207;-70
2023/11/25 01:40:17;;;;;;;0.60;0.60;;;-0.30;99.90;;;;;;5067427;28;20728;-69
2023/11/25 01:42:43;;;;;;;0.60;0.60;;;-0.30;99.90;;;;;;5048887;28;20568;-68
2023/11/25 01:45:12;;;;;;;0.60;0.60;;;-0.30;99.90;;;;;;5048783;28;20205;-68
2023/11/25 01:47:38;;;;;;;0.63;0.63;;;-0.20;99.90;;;;;;5085564;28;20204;-69
2023/11/25 01:50:06;;;;;;;0.65;0.65;;;-0.20;99.90;;;;;;5068797;28;20189;-67
2023/11/25 01:52:33;;;;;;;0.55;0.55;;;-0.20;99.90;;;;;;5068400;28;20683;-67
2023/11/25 01:55:01;;;;;;;0.60;0.60;;;-0.20;99.90;;;;;;5068740;28;20201;-69
2023/11/25 01:57:29;;;;;;;0.60;0.60;;;-0.30;99.90;;;;;;5068487;28;20203;-69
2023/11/25 01:59:56;;;;;;;0.70;0.70;;;-0.30;99.90;;;;;;5069036;28;20678;-69
2023/11/25 02:02:26;;;;;;;0.60;0.60;;;-0.30;99.90;;;;;;5068411;28;20217;-68
2023/11/25 02:04:52;;;;;;;0.63;0.63;;;-0.30;99.90;;;;;;5068822;28;20227;-68
2023/11/25 02:07:18;;;;;;;0.63;0.63;;;-0.30;99.90;;;;;;5068386;28;20200;-68
2023/11/25 02:09:44;;;;;;;0.60;0.60;;;-0.40;99.90;;;;;;5068568;28;20200;-67
2023/11/25 02:12:10;;;;;;;0.55;0.55;;;-0.50;99.90;;;;;;5068062;28;20647;-69
2023/11/25 02:14:37;;;;;;;0.63;0.63;;;-0.50;99.90;;;;;;5068210;28;20204;-69
2023/11/25 02:17:04;;;;;;;0.50;0.50;;;-0.60;99.90;;;;;;5072430;28;20676;-68
2023/11/25 02:19:31;;;;;;;0.70;0.70;;;-0.60;99.90;;;;;;5071947;28;20255;-69
2023/11/25 02:21:57;;;;;;;0.57;0.57;;;-0.70;99.90;;;;;;5072096;28;20321;-70
2023/11/25 02:24:26;;;;;;;0.65;0.65;;;-0.80;99.90;;;;;;5071061;28;20208;-69
2023/11/25 02:27:03;;;;;;;0.70;0.70;;;-0.90;99.90;;;;;;5071767;28;20193;-69
2023/11/25 02:29:31;;;;;;;0.70;0.70;;;-1.00;99.90;;;;;;5072092;28;20184;-69
2023/11/25 02:31:58;;;;;;;0.70;0.70;;;-1.20;99.90;;;;;;5072329;28;20197;-69
2023/11/25 02:34:25;;;;;;;0.70;0.70;;;-1.20;99.90;;;;;;5072071;28;20200;-69
2023/11/25 02:36:51;;;;;;;0.80;0.80;;;-1.30;99.90;;;;;;5072024;28;20639;-69
2023/11/25 02:39:18;;;;;;;0.80;0.80;;;-1.40;99.90;;;;;;5072233;28;20205;-69
2023/11/25 02:41:48;;;;;;;0.80;0.80;;;-1.50;99.90;;;;;;5071914;28;20208;-68
2023/11/25 02:44:15;;;;;;;0.60;0.60;;;-1.60;99.90;;;;;;5071849;28;20197;-69
2023/11/25 02:46:45;;;;;;;0.73;0.73;;;-1.60;99.90;;;;;;5071865;28;20215;-69
2023/11/25 02:49:11;;;;;;;0.75;0.75;;;-1.70;99.90;;;;;;5072026;28;20682;-69
2023/11/25 02:51:37;;;;;;;0.80;0.80;;;-1.70;99.90;;;;;;5071748;28;20236;-69
2023/11/25 02:54:05;;;;;;;0.80;0.80;;;-1.80;99.90;;;;;;5072251;28;20250;-69
2023/11/25 02:56:32;;;;;;;0.80;0.80;;;-1.90;99.90;;;;;;5071954;28;20855;-68
2023/11/25 02:58:57;;;;;;;0.80;0.80;;;-1.90;99.90;;;;;;5071718;28;20201;-68
2023/11/25 03:01:29;;;;;;;0.60;0.60;;;-2.10;99.90;;;;;;5071408;28;20215;-68
2023/11/25 03:03:54;;;;;;;0.70;0.70;;;-2.10;99.90;;;;;;5071431;28;20201;-69
2023/11/25 03:06:22;;;;;;;0.70;0.70;;;-2.20;99.90;;;;;;5071656;28;20218;-69
2023/11/25 03:08:48;;;;;;;0.70;0.70;;;-2.30;99.90;;;;;;5071578;28;20242;-69
2023/11/25 03:11:21;;;;;;;0.70;0.70;;;-2.40;99.90;;;;;;5071718;28;20671;-69
2023/11/25 03:13:47;;;;;;;0.70;0.70;;;-2.40;99.90;;;;;;5072079;28;20699;-69
2023/11/25 03:16:13;;;;;;;0.80;0.80;;;-2.50;99.90;;;;;;5053074;28;20236;-68
2023/11/25 03:18:39;;;;;;;0.65;0.65;;;-2.50;99.90;;;;;;5051209;28;20732;-69
2023/11/25 03:21:06;;;;;;;0.80;0.80;;;-2.60;99.90;;;;;;5049871;28;20407;-69
2023/11/25 03:23:31;;;;;;;1.17;1.10;;;-2.60;99.90;;;;;;5051203;28;20188;-68
2023/11/25 03:25:57;;;;;;;0.80;0.80;;;-2.60;99.90;;;;;;5050623;28;20198;-69
2023/11/25 03:28:24;;;;;;;0.73;0.73;;;-2.70;99.90;;;;;;5051235;28;20212;-70
2023/11/25 03:30:50;;;;;;;0.75;0.75;;;-2.70;99.90;;;;;;5051192;28;20259;-71
2023/11/25 03:33:16;;;;;;;0.80;0.80;;;-2.70;99.90;;;;;;5051324;28;20621;-71
2023/11/25 03:35:42;;;;;;;0.73;0.73;;;-2.80;99.90;;;;;;5050863;28;20194;-71
2023/11/25 03:38:08;;;;;;;0.70;0.70;;;-2.80;99.90;;;;;;5064036;28;20201;-71
2023/11/25 03:40:34;;;;;;;0.80;0.80;;;-2.90;99.90;;;;;;5062405;28;20194;-70
2023/11/25 03:43:00;;;;;;;3.45;1.60;;;-2.90;99.90;;;;;;5050833;28;20259;-70
2023/11/25 03:45:26;;;;;;;0.70;0.70;;;-2.90;99.90;;;;;;5050678;28;20201;-70
2023/11/25 03:47:53;;;;;;;0.70;0.70;;;-2.90;99.90;;;;;;5051209;28;20190;-70
2023/11/25 03:50:18;;;;;;;0.80;0.80;;;-3.00;99.90;;;;;;5050900;28;20189;-69
2023/11/25 03:52:45;;;;;;;0.75;0.75;;;-3.00;99.90;;;;;;5050751;28;20715;-69
2023/11/25 03:55:11;;;;;;;0.90;0.90;;;-3.00;99.90;;;;;;5050977;28;20238;-69
2023/11/25 03:57:39;;;;;;;0.80;0.80;;;-3.00;99.90;;;;;;5050580;28;20189;-68
2023/11/25 04:00:14;;;;;;;0.80;0.80;;;-3.00;99.90;;;;;;5050649;28;20541;-69
2023/11/25 04:02:45;;;;;;;0.60;0.60;;;-2.90;99.90;;;;;;5069407;28;20212;-68
2023/11/25 04:05:11;;;;;;;0.82;0.82;;;-2.80;99.90;;;;;;5070552;28;20272;-68
2023/11/25 04:07:38;;;;;;;0.73;0.73;;;-2.80;99.90;;;;;;5070250;28;20586;-70
2023/11/25 04:10:12;;;;;;;0.70;0.70;;;-2.80;99.90;;;;;;5070746;28;20651;-70
2023/11/25 04:12:46;;;;;;;0.80;0.80;;;-2.80;99.90;;;;;;5068481;28;20223;-70
2023/11/25 04:15:13;;;;;;;0.80;0.80;;;-2.80;99.90;;;;;;5070402;28;20196;-68
2023/11/25 04:17:39;;;;;;;0.70;0.70;;;-2.80;99.90;;;;;;5070052;28;20279;-69
2023/11/25 04:20:13;;;;;;;0.90;0.90;;;-2.80;99.90;;;;;;5070435;28;20687;-69
2023/11/25 04:22:45;;;;;;;0.75;0.75;;;-2.80;99.90;;;;;;5069805;28;20627;-70
2023/11/25 04:25:12;;;;;;;0.70;0.70;;;-2.80;99.90;;;;;;5070031;28;20716;-69
2023/11/25 04:27:43;;;;;;;0.77;0.77;;;-2.80;99.90;;;;;;5070046;28;20309;-67
2023/11/25 04:30:09;;;;;;;0.82;0.82;;;-2.90;99.90;;;;;;5070164;28;20624;-68
2023/11/25 04:32:42;;;;;;;0.80;0.80;;;-2.90;99.90;;;;;;5070099;28;20199;-68
2023/11/25 04:35:09;;;;;;;0.77;0.77;;;-3.00;99.90;;;;;;5070013;28;20720;-68
2023/11/25 04:37:35;;;;;;;0.80;0.80;;;-3.10;99.90;;;;;;5068760;28;20231;-68
2023/11/25 04:40:05;;;;;;;0.90;0.90;;;-3.20;99.90;;;;;;5069550;28;20203;-67
2023/11/25 04:42:30;;;;;;;0.80;0.80;;;-3.20;99.90;;;;;;5068169;28;20629;-68
2023/11/25 04:44:56;;;;;;;0.75;0.75;;;-3.30;99.90;;;;;;5069973;28;20205;-68
2023/11/25 04:47:22;;;;;;;0.75;0.75;;;-3.30;99.90;;;;;;5069520;28;20611;-69
2023/11/25 04:49:47;;;;;;;0.80;0.80;;;-3.40;99.90;;;;;;5069616;28;20648;-69
2023/11/25 04:52:13;;;;;;;0.82;0.82;;;-3.40;99.90;;;;;;5069804;28;20281;-68
2023/11/25 04:54:41;;;;;;;0.80;0.80;;;-3.50;99.90;;;;;;5068432;28;20296;-69
2023/11/25 04:57:07;;;;;;;1.20;1.20;;;-3.50;99.90;;;;;;5069521;28;20231;-68
2023/11/25 04:59:34;;;;;;;0.88;0.88;;;-3.60;99.90;;;;;;5067834;28;20206;-68
2023/11/25 05:02:01;;;;;;;0.80;0.80;;;-3.70;99.90;;;;;;5069272;28;20216;-69
2023/11/25 05:04:27;;;;;;;0.70;0.70;;;-3.70;99.90;;;;;;5067797;28;20204;-68
2023/11/25 05:06:52;;;;;;;0.90;0.90;;;-3.80;99.90;;;;;;5066293;28;20305;-68
2023/11/25 05:09:18;;;;;;;0.70;0.70;;;-3.80;99.90;;;;;;5049452;28;20193;-68
2023/11/25 05:11:47;;;;;;;0.82;0.82;;;-3.90;99.90;;;;;;5047874;28;20715;-68
2023/11/25 05:14:13;;;;;;;0.90;0.90;;;-4.00;99.90;;;;;;5049347;28;20250;-69
2023/11/25 05:16:39;;;;;;;1.00;1.00;;;-4.00;99.90;;;;;;5049126;28;20217;-68
2023/11/25 05:19:04;;;;;;;0.80;0.80;;;-4.10;99.90;;;;;;5049106;28;20657;-68
2023/11/25 05:21:30;;;;;;;0.90;0.90;;;-4.10;99.90;;;;;;5047501;28;20217;-69
2023/11/25 05:23:56;;;;;;;0.80;0.80;;;-4.20;99.90;;;;;;5049019;28;20576;-68
2023/11/25 05:26:23;;;;;;;0.80;0.80;;;-4.20;99.90;;;;;;5048960;28;20193;-68
2023/11/25 05:28:49;;;;;;;1.70;1.60;;;-4.20;99.90;;;;;;5049091;28;20556;-68
2023/11/25 05:31:16;;;;;;;0.90;0.90;;;-4.20;99.90;;;;;;5049040;28;20197;-69
2023/11/25 05:33:42;;;;;;;0.90;0.90;;;-4.30;99.90;;;;;;5062470;28;20235;-69
2023/11/25 05:36:09;;;;;;;0.80;0.80;;;-4.40;99.90;;;;;;5069241;28;20722;-69
2023/11/25 05:38:35;;;;;;;0.90;0.90;;;-4.40;99.90;;;;;;5068773;28;20725;-68
2023/11/25 05:41:02;;;;;;;0.90;0.90;;;-4.40;99.90;;;;;;5068944;28;20193;-68
2023/11/25 05:43:28;;;;;;;0.80;0.80;;;-4.40;99.90;;;;;;5068911;28;20192;-68
2023/11/25 05:45:54;;;;;;;0.80;0.80;;;-4.40;99.90;;;;;;5067562;28;20560;-68
2023/11/25 05:48:22;;;;;;;0.90;0.90;;;-4.50;99.90;;;;;;5068821;28;20196;-69
2023/11/25 05:50:48;;;;;;;0.90;0.90;;;-4.50;99.90;;;;;;5068537;28;20219;-67
2023/11/25 05:53:14;;;;;;;0.70;0.70;;;-4.50;99.90;;;;;;5067430;28;20728;-67
2023/11/25 05:55:41;;;;;;;0.80;0.80;;;-4.60;99.90;;;;;;5068616;28;20209;-68
2023/11/25 05:58:06;;;;;;;0.90;0.90;;;-4.70;99.90;;;;;;5068808;28;20702;-67
2023/11/25 06:00:33;;;;;;;0.80;0.80;;;-4.70;99.90;;;;;;5068592;28;20189;-68
2023/11/25 06:02:58;;;;;;;0.80;0.80;;;-4.70;99.90;;;;;;5068268;28;20205;-68
2023/11/25 06:05:24;;;;;;;0.90;0.90;;;-4.80;99.90;;;;;;5067189;28;20249;-68
2023/11/25 06:07:50;;;;;;;0.80;0.80;;;-4.80;99.90;;;;;;5068788;28;20197;-68
2023/11/25 06:10:16;;;;;;;0.90;0.90;;;-4.80;99.90;;;;;;5068536;28;20479;-67
2023/11/25 06:12:41;;;;;;;1.00;1.00;;;-4.80;99.90;;;;;;5068384;28;20207;-67
2023/11/25 06:15:09;;;;;;;1.00;1.00;;;-4.80;99.90;;;;;;5068609;28;20762;-68
2023/11/25 06:17:36;;;;;;;0.70;0.70;;;-4.90;99.90;;;;;;5068398;28;20735;-68
2023/11/25 06:20:02;;;;;;;0.80;0.80;;;-4.90;99.90;;;;;;5068704;28;20204;-67
2023/11/25 06:22:28;;;;;;;0.80;0.80;;;-4.90;99.90;;;;;;5068958;28;20679;-67
2023/11/25 06:24:54;;;;;;;0.90;0.90;;;-5.00;99.90;;;;;;5068396;28;20193;-67
2023/11/25 06:27:21;;;;;;;0.80;0.80;;;-5.00;99.90;;;;;;5068356;28;20195;-67
2023/11/25 06:29:48;;;;;;;0.90;0.90;;;-5.00;99.90;;;;;;5068069;28;20528;-67
2023/11/25 06:32:14;;;;;;;0.80;0.80;;;-5.10;99.90;;;;;;5066918;28;20259;-68
2023/11/25 06:34:40;;;;;;;0.75;0.75;;;-5.20;99.90;;;;;;5068157;28;20201;-68
2023/11/25 06:37:06;;;;;;;0.80;0.80;;;-5.30;99.90;;;;;;5068118;28;20656;-68
2023/11/25 06:39:32;;;;;;;0.90;0.90;;;-5.20;99.90;;;;;;5068171;28;20312;-68
2023/11/25 06:42:00;;;;;;;1.10;1.10;;;-5.20;99.90;;;;;;5068123;28;20258;-68
2023/11/25 06:44:29;;;;;;;0.90;0.90;;;-5.30;99.90;;;;;;5068022;28;20656;-67
2023/11/25 06:46:55;;;;;;;0.80;0.80;;;-5.30;99.90;;;;;;5068304;28;20817;-68
2023/11/25 06:49:21;;;;;;;0.82;0.82;;;-5.30;99.90;;;;;;5067904;28;20484;-67
2023/11/25 06:51:47;;;;;;;0.90;0.90;;;-5.30;99.90;;;;;;5068192;28;20278;-68
2023/11/25 06:54:13;;;;;;;0.90;0.90;;;-5.30;99.90;;;;;;5068340;28;20189;-68
2023/11/25 06:56:39;;;;;;;0.90;0.90;;;-5.30;99.90;;;;;;5066556;28;20204;-67
2023/11/25 06:59:05;;;;;;;0.90;0.90;;;-5.40;99.90;;;;;;5067967;28;20565;-69
2023/11/25 07:01:32;;;;;;;0.70;0.70;;;-5.40;99.90;;;;;;5067835;28;20723;-69
2023/11/25 07:03:58;;;;;;;0.80;0.80;;;-5.50;99.90;;;;;;5071781;28;20193;-69
2023/11/25 07:06:23;;;;;;;0.80;0.80;;;-5.50;99.90;;;;;;5071725;28;20559;-69
2023/11/25 07:08:49;;;;;;;0.80;0.80;;;-5.40;99.90;;;;;;5071721;28;20193;-69
2023/11/25 07:11:16;;;;;;;0.82;0.82;;;-5.50;99.90;;;;;;5071755;28;20199;-69
2023/11/25 07:13:42;;;;;;;0.90;0.90;;;-5.50;99.90;;;;;;5072117;28;20185;-69
2023/11/25 07:16:11;;;;;;;0.80;0.80;;;-5.50;99.90;;;;;;5071512;28;20197;-69
2023/11/25 07:18:42;;;;;;;0.75;0.75;;;-5.60;99.90;;;;;;5071496;28;20189;-68
2023/11/25 07:21:11;;;;;;;0.90;0.90;;;-5.60;99.90;;;;;;5071363;28;20668;-67
2023/11/25 07:23:39;;;;;;;0.90;0.90;;;-5.60;99.90;;;;;;5071293;28;20570;-68
2023/11/25 07:26:06;;;;;;;1.00;1.00;;;-5.70;99.90;;;;;;5071419;28;20200;-68
2023/11/25 07:28:33;;;;;;;0.90;0.90;;;-5.60;99.90;;;;;;5071358;28;20664;-68
2023/11/25 07:30:59;;;;;;;0.90;0.90;;;-5.70;99.90;;;;;;5071391;28;20566;-67
2023/11/25 07:33:25;;;;;;;1.40;1.30;;;-5.70;99.90;;;;;;5071457;28;20204;-67
2023/11/25 07:35:51;;;;;;;0.83;0.83;;;-5.70;99.90;;;;;;5071417;28;20624;-68
2023/11/25 07:38:17;;;;;;;0.90;0.90;;;-5.70;99.90;;;;;;5069583;28;20682;-68
2023/11/25 07:40:43;;;;;;;0.90;0.90;;;-5.70;99.90;;;;;;5071378;28;20193;-68
2023/11/25 07:43:08;;;;;;;0.90;0.90;;;-5.70;99.90;;;;;;5069610;28;20579;-69
2023/11/25 07:45:34;;;;;;;1.20;1.15;;;-5.70;99.90;;;;;;5071198;28;20193;-68
2023/11/25 07:48:00;;;;;;;0.90;0.90;;;-5.70;99.90;;;;;;5070913;28;20284;-67
2023/11/25 07:50:25;;;;;;;0.80;0.80;;;-5.80;99.90;;;;;;5070668;28;20316;-67
2023/11/25 07:52:51;;;;;;;1.02;1.02;;;-5.70;99.90;;;;;;5070702;28;20225;-68
2023/11/25 07:55:19;;;;;;;1.15;1.08;;;-5.70;99.90;;;;;;5070345;28;20715;-68
2023/11/25 07:57:47;;;;;;;0.80;0.80;;;-5.70;99.90;;;;;;5050642;28;20213;-67
2023/11/25 08:00:15;;;;;;;0.90;0.90;;;-5.70;99.90;;;;;;5050717;28;20197;-68
2023/11/25 08:02:45;;;;;;;1.00;1.00;;;-5.70;99.90;;;;;;5050346;28;20653;-67
2023/11/25 08:05:11;;;;;;;0.90;0.90;;;-5.70;99.90;;;;;;5050500;28;20189;-67
2023/11/25 08:07:37;;;;;;;0.90;0.90;;;-5.80;99.90;;;;;;5050450;28;20251;-67
2023/11/25 08:10:04;;;;;;;0.90;0.90;;;-5.80;99.90;;;;;;5050600;28;20208;-68
2023/11/25 08:12:30;;;;;;;0.90;0.90;;;-5.80;99.90;;;;;;5050247;28;20201;-67
2023/11/25 08:14:56;;;;;;;1.00;1.00;;;-5.80;99.90;;;;;;5050730;28;20823;-67
2023/11/25 08:17:22;;;;;;;0.80;0.80;;;-5.80;99.90;;;;;;5050197;28;20723;-66
2023/11/25 08:19:48;;;;;;;0.90;0.90;;;-5.80;99.90;;;;;;5050365;28;20205;-66
2023/11/25 08:22:13;;;;;;;0.80;0.80;;;-5.70;99.90;;;;;;5050078;28;20213;-66
2023/11/25 08:24:39;;;;;;;0.80;0.80;;;-5.70;99.90;;;;;;5050023;28;20529;-66
2023/11/25 08:27:05;;;;;;;2.08;1.85;;;-5.70;99.90;;;;;;5050256;28;20196;-66
2023/11/25 08:29:30;;;;;;;0.90;0.90;;;-5.70;99.90;;;;;;5049917;28;20844;-68
2023/11/25 08:31:56;;;;;;;0.90;0.90;;;-5.70;99.90;;;;;;5050501;28;20300;-69
2023/11/25 08:34:21;;;;;;;0.90;0.90;;;-5.70;99.90;;;;;;5049617;28;20196;-68
2023/11/25 08:36:54;;;;;;;0.85;0.85;;;-5.70;99.90;;;;;;5051778;28;20205;-69
2023/11/25 08:39:21;;;;;;;0.90;0.90;;;-5.60;99.90;;;;;;5070095;28;20648;-68
2023/11/25 08:41:47;;;;;;;0.85;0.85;;;-5.60;99.90;;;;;;5069803;28;20219;-68
2023/11/25 08:44:13;;;;;;;0.77;0.77;;;-5.60;99.90;;;;;;5069908;28;20197;-66
2023/11/25 08:46:45;;;;;;;0.80;0.80;;;-5.60;99.90;;;;;;5069633;28;21516;-67
2023/11/25 08:49:13;;;;;;;0.90;0.90;;;-5.60;99.90;;;;;;5069717;28;20200;-67
2023/11/25 08:51:41;;;;;;;0.70;0.70;;;-5.60;99.90;;;;;;5069143;28;20653;-67
2023/11/25 08:54:08;;;;;;;0.80;0.80;;;-5.60;99.90;;;;;;5070032;28;20227;-68
2023/11/25 08:56:34;;;;;;;0.93;0.93;;;-5.50;99.90;;;;;;5069400;28;20304;-68
2023/11/25 08:59:01;;;;;;;0.80;0.80;;;-5.50;99.90;;;;;;5069452;28;20753;-68
2023/11/25 09:01:31;;;;;;;0.70;0.70;;;-5.50;99.90;;;;;;5069207;28;20660;-68
2023/11/25 09:03:58;;;;;;;0.80;0.80;;;-5.50;99.90;;;;;;5069300;28;20207;-68
2023/11/25 09:06:24;;;;;;;0.80;0.80;;;-5.50;99.90;;;;;;5069350;28;20696;-68
2023/11/25 09:08:50;;;;;;;0.90;0.90;;;-5.50;99.90;;;;;;5069665;28;20205;-68
2023/11/25 09:11:15;;;;;;;0.80;0.80;;;-5.50;99.90;;;;;;5069350;28;20250;-68
2023/11/25 09:13:41;;;;;;;0.70;0.70;;;-5.50;99.90;;;;;;5069533;28;20284;-68
2023/11/25 09:16:07;;;;;;;0.83;0.83;;;-5.40;99.90;;;;;;5069324;28;20216;-68
2023/11/25 09:18:33;;;;;;;0.80;0.80;;;-5.40;99.90;;;;;;5068819;28;20695;-68
2023/11/25 09:20:59;;;;;;;0.90;0.90;;;-5.40;99.90;;;;;;5067721;28;20231;-69
2023/11/25 09:23:24;;;;;;;0.80;0.80;;;-5.40;99.90;;;;;;5067269;28;20222;-67
2023/11/25 09:25:50;;;;;;;0.90;0.90;;;-5.40;99.90;;;;;;5068648;28;20196;-67
2023/11/25 09:28:16;;;;;;;0.80;0.80;;;-5.40;99.90;;;;;;5069316;28;20242;-67
2023/11/25 09:30:41;;;;;;;0.80;0.80;;;-5.30;99.90;;;;;;5068526;28;20200;-69
2023/11/25 09:33:07;;;;;;;1.00;1.00;;;-5.30;99.90;;;;;;5069042;28;20294;-68
2023/11/25 09:35:33;;;;;;;0.80;0.80;;;-5.30;99.90;;;;;;5068826;28;20193;-67
2023/11/25 09:37:58;;;;;;;0.90;0.90;;;-5.30;99.90;;;;;;5068634;28;20200;-68
2023/11/25 09:40:28;;;;;;;0.90;0.90;;;-5.30;99.90;;;;;;5068762;28;20205;-68
2023/11/25 09:42:54;;;;;;;0.90;0.90;;;-5.30;99.90;;;;;;5068766;28;20672;-68
2023/11/25 09:45:28;;;;;;;0.82;0.82;;;-5.30;99.90;;;;;;5067366;28;20196;-69
2023/11/25 09:47:54;;;;;;;0.80;0.80;;;-5.40;99.90;;;;;;5067638;28;20582;-69
2023/11/25 09:50:21;;;;;;;0.80;0.80;;;-5.40;99.90;;;;;;5047236;28;20209;-66
2023/11/25 09:52:52;;;;;;;0.80;0.80;;;-5.30;99.90;;;;;;5048507;28;20252;-67
2023/11/25 09:55:18;;;;;;;0.70;0.70;;;-5.30;99.90;;;;;;5048710;28;20204;-67
2023/11/25 09:57:52;;;;;;;0.80;0.80;;;-5.30;99.90;;;;;;5048729;28;20209;-68
2023/11/25 10:00:21;;;;;;;0.80;0.80;;;-5.30;99.90;;;;;;5048604;28;20197;-69
2023/11/25 10:02:51;;;;;;;0.90;0.90;;;-5.20;99.90;;;;;;5047180;28;20282;-70
2023/11/25 10:05:17;;;;;;;0.90;0.90;;;-5.30;99.90;;;;;;5048419;28;20209;-67
2023/11/25 10:07:42;;;;;;;0.85;0.85;;;-5.30;99.90;;;;;;5048822;28;20212;-66
2023/11/25 10:10:09;;;;;;;0.90;0.90;;;-5.20;99.90;;;;;;5048725;28;20635;-67
2023/11/25 10:12:34;;;;;;;1.08;1.08;;;-5.20;99.90;;;;;;5048699;28;20194;-70
2023/11/25 10:15:02;;;;;;;0.80;0.80;;;-5.20;99.90;;;;;;5048276;28;20209;-68
2023/11/25 10:17:28;;;;;;;0.80;0.80;;;-5.30;99.90;;;;;;5048295;28;20627;-68
2023/11/25 10:20:13;;;;;;;0.80;0.80;;;-5.20;99.90;;;;;;5048559;28;20201;-68
2023/11/25 10:22:46;;;;;;;0.95;0.95;;;-5.20;99.90;;;;;;5048366;28;20746;-68
2023/11/25 10:25:12;;;;;;;0.70;0.70;;;-5.20;99.90;;;;;;5046932;28;20665;-68
2023/11/25 10:27:39;;;;;;;0.97;0.97;;;-5.20;99.90;;;;;;5048204;28;20308;-68
2023/11/25 10:30:06;;;;;;;0.90;0.90;;;-5.20;99.90;;;;;;5048488;28;20258;-70
2023/11/25 10:32:38;;;;;;;0.80;0.80;;;-5.20;99.90;;;;;;5048364;28;20213;-69
2023/11/25 10:35:04;;;;;;;0.82;0.82;;;-5.20;99.90;;;;;;5048403;28;20205;-70
2023/11/25 10:37:32;;;;;;;0.80;0.80;;;-5.20;99.90;;;;;;5057302;28;20201;-69
2023/11/25 10:39:59;;;;;;;1.00;1.00;;;-5.10;99.90;;;;;;5072167;28;20199;-69
2023/11/25 10:42:26;;;;;;;0.70;0.70;;;-5.20;99.90;;;;;;5071875;28;20209;-69
2023/11/25 10:44:52;;;;;;;0.80;0.80;;;-5.20;99.90;;;;;;5071869;28;20680;-71
2023/11/25 10:47:36;;;;;;;0.90;0.90;;;-5.10;99.90;;;;;;5072132;28;20197;-69
2023/11/25 10:50:02;;;;;;;0.83;0.83;;;-5.00;99.90;;;;;;5072241;28;20193;-74
2023/11/25 10:52:32;;;;;;;0.90;0.90;;;-5.00;99.90;;;;;;5071858;28;20264;-69
2023/11/25 10:54:58;;;;;;;0.90;0.90;;;-5.00;99.90;;;;;;5072014;28;20201;-70
2023/11/25 10:57:26;;;;;;;0.87;0.87;;;-5.00;99.90;;;;;;5071856;28;20207;-68
2023/11/25 10:59:56;;;;;;;0.80;0.80;;;-5.00;99.90;;;;;;5071758;28;20208;-69
2023/11/25 11:02:28;;;;;;;0.90;0.90;;;-5.00;99.90;;;;;;5071441;28;20625;-69
2023/11/25 11:04:58;;;;;;;0.80;0.80;;;-5.00;99.90;;;;;;5071804;28;20272;-68
2023/11/25 11:07:26;;;;;;;0.77;0.77;;;-5.00;99.90;;;;;;5071722;28;20193;-68
2023/11/25 11:09:56;;;;;;;0.90;0.90;;;-5.00;99.90;;;;;;5068953;28;20203;-68
2023/11/25 11:12:32;;;;;;;0.90;0.90;;;-5.00;99.90;;;;;;5051589;28;20577;-69
2023/11/25 11:15:06;;;;;;;0.80;0.80;;;-5.00;99.90;;;;;;5051560;28;20653;-68
2023/11/25 11:17:48;;;;;;;0.95;0.95;;;-5.00;99.90;;;;;;5051337;28;20193;-69
2023/11/25 11:20:15;;;;;;;0.82;0.82;;;-5.00;99.90;;;;;;5051250;28;20323;-68
2023/11/25 11:22:42;;;;;;;0.80;0.80;;;-4.90;99.90;;;;;;5051401;28;20282;-69
2023/11/25 11:25:35;;;;;;;0.82;0.82;;;-4.90;99.90;;;;;;5051256;28;20276;-68
2023/11/25 11:28:32;;;;;;;0.90;0.90;;;-4.90;99.90;;;;;;5051345;28;20250;-70
2023/11/25 11:31:06;;;;;;;0.80;0.80;;;-4.90;99.90;;;;;;5049879;28;20216;-68
2023/11/25 11:33:32;;;;;;;0.80;0.80;;;-4.90;99.90;;;;;;5051172;28;20747;-69
2023/11/25 11:35:57;;;;;;;0.90;0.90;;;-4.90;99.90;;;;;;5051038;28;20193;-68
2023/11/25 11:38:24;;;;;;;0.90;0.90;;;-4.90;99.90;;;;;;5066022;28;20204;-69
2023/11/25 11:40:57;;;;;;;0.80;0.80;;;-4.90;99.90;;;;;;5068658;28;20683;-68
2023/11/25 11:43:23;;;;;;;0.80;0.80;;;-4.80;99.90;;;;;;5070449;28;20225;-68
2023/11/25 11:45:49;;;;;;;0.80;0.80;;;-4.80;99.90;;;;;;5070210;28;20695;-69
2023/11/25 11:48:15;;;;;;;0.82;0.82;;;-4.80;99.90;;;;;;5070185;28;20192;-68
2023/11/25 11:50:43;;;;;;;0.90;0.90;;;-4.80;99.90;;;;;;5069955;28;20201;-68
2023/11/25 11:53:15;;;;;;;0.82;0.82;;;-4.80;99.90;;;;;;5070264;28;20652;-70
2023/11/25 11:55:57;;;;;;;0.80;0.80;;;-4.80;99.90;;;;;;5070090;28;20205;-69
2023/11/25 11:58:27;;;;;;;0.90;0.90;;;-4.80;99.90;;;;;;5070086;28;20556;-69
2023/11/25 12:01:03;;;;;;;0.88;0.88;;;-4.80;99.90;;;;;;5070077;28;20244;-68
2023/11/25 12:03:33;;;;;;;0.90;0.90;;;-4.80;99.90;;;;;;5069953;28;20266;-69
2023/11/25 12:06:00;;;;;;;0.80;0.80;;;-4.80;99.90;;;;;;5069953;28;20231;-70
2023/11/25 12:08:27;;;;;;;0.80;0.80;;;-4.80;99.90;;;;;;5069789;28;20770;-70
2023/11/25 12:10:53;;;;;;;0.87;0.87;;;-4.80;99.90;;;;;;5069806;28;20656;-71
2023/11/25 12:13:33;;;;;;;0.63;0.63;;;-4.80;99.90;;;;;;5069940;28;20284;-69
2023/11/25 12:16:00;;;;;;;0.80;0.80;;;-4.80;99.90;;;;;;5069686;28;20211;-68
2023/11/25 12:18:27;;;;;;;2.38;1.35;;;-4.80;99.90;;;;;;5069671;28;20201;-68
2023/11/25 12:20:53;;;;;;;0.80;0.80;;;-4.80;99.90;;;;;;5069708;28;20196;-68
2023/11/25 12:23:18;;;;;;;0.80;0.80;;;-4.80;99.90;;;;;;5069494;28;20208;-68
2023/11/25 12:25:44;;;;;;;0.80;0.80;;;-4.80;99.90;;;;;;5069390;28;20621;-69
2023/11/25 12:28:11;;;;;;;0.80;0.80;;;-4.80;99.90;;;;;;5069554;28;20561;-68
2023/11/25 12:30:38;;;;;;;0.90;0.90;;;-4.70;99.90;;;;;;5069355;28;20205;-68
2023/11/25 12:33:08;;;;;;;0.80;0.80;;;-4.70;99.90;;;;;;5069521;28;20808;-69
2023/11/25 12:35:35;;;;;;;0.80;0.80;;;-4.70;99.90;;;;;;5069360;28;20674;-68
2023/11/25 12:38:02;;;;;;;0.80;0.80;;;-4.70;99.90;;;;;;5068552;28;20288;-68
2023/11/25 12:40:28;;;;;;;0.82;0.82;;;-4.70;99.90;;;;;;5069033;28;20197;-68
2023/11/25 12:42:54;;;;;;;0.70;0.70;;;-4.80;99.90;;;;;;5069294;28;20703;-68
2023/11/25 12:45:33;;;;;;;0.80;0.80;;;-4.80;99.90;;;;;;5069520;28;20275;-69
2023/11/25 12:47:59;;;;;;;4.32;2.55;;;-4.80;99.90;;;;;;5069276;28;20586;-67